Time;durP1;ratioP1;P1;durP2;ratioP2;P2;SDS_P1;SDS_P2;PMS_P1;PMS_P2;Temp;Humidity;BMP_temperature;BMP_pressure;BME280_temperature;BME280_humidity;BME280_pressure;Samples;Min_cycle;Max_cycle;Signal;HPM_P1;HPM_P2
2021/03/27 00:02:19;;;;;;;13.05;7.95;;;10.50;66.10;;;;;;5088662;28;27376;-59
2021/03/27 00:05:19;;;;;;;13.57;8.98;;;10.60;67.40;;;;;;5088466;28;27458;-60
2021/03/27 00:08:17;;;;;;;19.52;9.35;;;10.50;69.20;;;;;;5088716;28;27394;-60
2021/03/27 00:11:10;;;;;;;11.48;7.95;;;10.60;69.10;;;;;;5103304;28;27495;-59
2021/03/27 00:14:02;;;;;;;13.63;7.88;;;10.60;69.80;;;;;;5088122;28;27497;-59
2021/03/27 00:16:58;;;;;;;9.95;6.63;;;10.60;69.80;;;;;;5100308;28;27423;-60
2021/03/27 00:19:52;;;;;;;12.90;6.97;;;10.60;70.10;;;;;;5107275;28;27329;-60
2021/03/27 00:23:00;;;;;;;10.45;7.00;;;10.60;70.10;;;;;;5106553;28;27454;-59
2021/03/27 00:25:51;;;;;;;12.48;7.35;;;10.60;69.80;;;;;;5103884;28;27430;-59
2021/03/27 00:28:44;;;;;;;11.20;6.68;;;10.60;69.80;;;;;;5092837;28;27340;-59
2021/03/27 00:31:53;;;;;;;10.55;7.15;;;10.60;69.80;;;;;;5106861;28;27312;-59
2021/03/27 00:34:43;;;;;;;11.60;6.90;;;10.60;69.20;;;;;;5103142;28;27332;-59
2021/03/27 00:37:27;;;;;;;11.50;5.88;;;10.60;70.20;;;;;;5091756;28;27482;-59
2021/03/27 00:40:15;;;;;;;9.32;5.93;;;10.60;69.90;;;;;;5077708;28;27476;-59
2021/03/27 00:43:17;;;;;;;12.30;6.82;;;10.60;69.50;;;;;;5085061;28;27434;-59
2021/03/27 00:46:04;;;;;;;8.60;5.32;;;10.60;69.20;;;;;;5086202;28;27422;-59
2021/03/27 00:49:00;;;;;;;8.57;5.38;;;10.50;69.30;;;;;;5085050;28;27498;-59
2021/03/27 00:51:56;;;;;;;7.40;5.43;;;10.50;70.60;;;;;;5082903;28;27375;-59
2021/03/27 00:54:43;;;;;;;8.15;5.18;;;10.50;71.60;;;;;;5068803;28;27353;-59
2021/03/27 00:57:33;;;;;;;8.13;5.18;;;10.50;70.70;;;;;;5082675;28;27344;-59
2021/03/27 01:00:48;;;;;;;6.30;4.35;;;10.40;70.60;;;;;;5082658;28;27482;-59
2021/03/27 01:03:44;;;;;;;7.95;4.97;;;10.40;70.50;;;;;;5082682;28;27356;-59
2021/03/27 01:06:51;;;;;;;9.32;4.88;;;10.40;70.20;;;;;;5085489;28;27671;-59
2021/03/27 01:09:58;;;;;;;7.65;4.95;;;10.30;70.30;;;;;;5084844;28;27379;-60
2021/03/27 01:13:11;;;;;;;6.22;4.35;;;10.30;69.80;;;;;;5074602;28;27439;-59
2021/03/27 01:15:59;;;;;;;6.03;4.47;;;10.30;69.50;;;;;;5084983;28;27409;-59
2021/03/27 01:18:46;;;;;;;5.53;4.25;;;10.30;69.60;;;;;;5081705;28;27373;-59
2021/03/27 01:21:35;;;;;;;7.50;4.22;;;10.30;69.40;;;;;;5085131;28;27454;-59
2021/03/27 01:24:22;;;;;;;6.43;4.47;;;10.40;69.40;;;;;;5085039;28;27548;-61
2021/03/27 01:27:28;;;;;;;7.18;4.93;;;10.30;70.20;;;;;;5085178;28;27341;-61
2021/03/27 01:30:39;;;;;;;7.05;4.07;;;10.30;69.60;;;;;;5084559;28;27383;-61
2021/03/27 01:33:38;;;;;;;6.90;3.85;;;10.30;69.90;;;;;;5081978;28;27386;-61
2021/03/27 01:36:43;;;;;;;6.05;4.03;;;10.30;70.90;;;;;;5085376;28;27400;-61
2021/03/27 01:39:32;;;;;;;7.32;4.82;;;10.30;70.60;;;;;;5085693;28;27390;-61
2021/03/27 01:43:09;;;;;;;5.80;4.10;;;10.40;71.70;;;;;;5090621;27;27498;-61
2021/03/27 01:46:15;;;;;;;6.30;4.70;;;10.40;72.90;;;;;;5102341;28;28051;-61
2021/03/27 01:49:21;;;;;;;6.35;4.40;;;10.30;72.90;;;;;;5105587;28;27325;-62
2021/03/27 01:52:15;;;;;;;5.93;3.85;;;10.40;72.90;;;;;;5105622;28;27385;-61
2021/03/27 01:55:18;;;;;;;5.28;3.83;;;10.40;73.20;;;;;;5105788;28;27376;-61
2021/03/27 01:58:27;;;;;;;10.57;4.57;;;10.40;72.60;;;;;;5105433;28;27944;-61
2021/03/27 02:01:32;;;;;;;5.80;4.00;;;10.40;73.50;;;;;;5105659;28;27407;-61
2021/03/27 02:04:21;;;;;;;8.07;4.40;;;10.30;72.80;;;;;;5064191;28;27404;-61
2021/03/27 02:07:25;;;;;;;5.95;4.03;;;10.30;72.60;;;;;;5105560;28;27453;-61
2021/03/27 02:10:26;;;;;;;5.00;3.88;;;10.30;72.30;;;;;;5105496;28;27470;-61
2021/03/27 02:13:18;;;;;;;5.72;3.67;;;10.30;71.70;;;;;;5101848;28;27329;-61
2021/03/27 02:16:09;;;;;;;7.40;4.22;;;10.40;71.60;;;;;;5087646;28;27419;-61
2021/03/27 02:19:15;;;;;;;5.70;3.60;;;10.40;71.80;;;;;;5090330;28;26881;-61
2021/03/27 02:22:12;;;;;;;7.80;3.60;;;10.40;71.40;;;;;;5090258;28;27490;-61
2021/03/27 02:25:11;;;;;;;6.13;3.65;;;10.40;72.10;;;;;;5105300;28;27506;-61
2021/03/27 02:28:15;;;;;;;4.47;3.38;;;10.40;72.00;;;;;;5105348;28;27390;-61
2021/03/27 02:31:08;;;;;;;8.65;3.33;;;10.40;71.80;;;;;;5104951;28;27427;-60
2021/03/27 02:34:03;;;;;;;4.57;3.30;;;10.40;71.20;;;;;;5104667;28;28064;-60
2021/03/27 02:37:02;;;;;;;7.28;3.33;;;10.30;71.20;;;;;;5090670;28;27454;-60
2021/03/27 02:39:55;;;;;;;5.20;3.10;;;10.40;71.70;;;;;;5104337;28;27381;-60
2021/03/27 02:43:04;;;;;;;3.85;3.05;;;10.40;72.10;;;;;;5104223;28;27559;-61
2021/03/27 02:46:09;;;;;;;5.22;3.40;;;10.30;72.10;;;;;;5104736;28;27345;-60
2021/03/27 02:49:25;;;;;;;3.92;3.28;;;10.30;73.10;;;;;;5086487;28;27404;-62
2021/03/27 02:52:32;;;;;;;4.70;2.70;;;10.40;73.30;;;;;;5077653;28;27515;-61
2021/03/27 02:55:46;;;;;;;3.85;2.53;;;10.40;73.60;;;;;;5089779;28;27455;-61
2021/03/27 02:58:50;;;;;;;3.78;1.92;;;10.30;74.30;;;;;;5095367;28;27436;-61
2021/03/27 03:01:55;;;;;;;4.35;2.25;;;10.30;73.80;;;;;;5104798;28;27404;-61
2021/03/27 03:04:58;;;;;;;3.40;2.05;;;10.30;74.30;;;;;;5090484;28;27433;-61
2021/03/27 03:08:09;;;;;;;2.80;2.25;;;10.30;74.80;;;;;;5104706;28;27475;-61
2021/03/27 03:11:09;;;;;;;2.83;2.38;;;10.30;74.80;;;;;;5065612;28;27887;-61
2021/03/27 03:13:56;;;;;;;2.80;2.22;;;10.30;75.40;;;;;;5104092;28;27417;-61
2021/03/27 03:16:46;;;;;;;3.45;2.33;;;10.30;75.90;;;;;;5104664;28;27416;-61
2021/03/27 03:19:48;;;;;;;2.17;1.88;;;10.30;76.30;;;;;;5104577;28;27328;-61
2021/03/27 03:22:40;;;;;;;4.25;2.22;;;10.20;76.40;;;;;;5101225;28;27841;-61
2021/03/27 03:25:29;;;;;;;4.10;2.20;;;10.20;76.40;;;;;;5104194;28;27485;-61
2021/03/27 03:28:19;;;;;;;3.70;2.53;;;10.20;76.00;;;;;;5089612;28;27421;-61
2021/03/27 03:31:24;;;;;;;3.58;2.13;;;10.20;76.00;;;;;;5089076;28;27325;-61
2021/03/27 03:34:17;;;;;;;2.03;1.70;;;10.10;76.20;;;;;;5090897;28;27642;-61
2021/03/27 03:37:11;;;;;;;2.92;1.85;;;10.10;75.70;;;;;;5075932;28;27330;-61
2021/03/27 03:40:11;;;;;;;2.42;1.67;;;10.10;75.20;;;;;;5104361;28;27325;-61
2021/03/27 03:43:11;;;;;;;2.08;1.80;;;10.20;74.80;;;;;;5103281;28;27689;-61
2021/03/27 03:46:08;;;;;;;3.38;2.00;;;10.10;75.20;;;;;;5088797;28;27393;-61
2021/03/27 03:49:23;;;;;;;3.38;1.92;;;10.10;74.00;;;;;;5104204;28;27410;-60
2021/03/27 03:52:26;;;;;;;1.83;1.25;;;10.10;73.80;;;;;;5105220;28;27383;-60
2021/03/27 03:55:22;;;;;;;2.65;1.38;;;10.10;73.80;;;;;;5107438;28;27338;-61
2021/03/27 03:58:19;;;;;;;3.15;0.90;;;10.10;73.90;;;;;;5075753;28;27417;-61
2021/03/27 04:01:28;;;;;;;2.35;0.90;;;10.10;73.80;;;;;;5104671;28;27332;-61
2021/03/27 04:04:17;;;;;;;1.10;0.80;;;10.00;73.40;;;;;;5095189;28;27455;-60
2021/03/27 04:07:07;;;;;;;0.68;0.55;;;10.00;73.10;;;;;;5107312;28;27336;-61
2021/03/27 04:09:56;;;;;;;1.08;0.60;;;10.00;72.80;;;;;;5092193;28;27931;-61
2021/03/27 04:12:55;;;;;;;0.55;0.55;;;9.90;72.70;;;;;;5078454;28;27396;-61
2021/03/27 04:16:09;;;;;;;0.77;0.60;;;9.90;72.60;;;;;;5107479;28;27430;-61
2021/03/27 04:19:09;;;;;;;1.25;0.60;;;9.80;72.40;;;;;;5092643;28;27373;-61
2021/03/27 04:22:16;;;;;;;0.55;0.55;;;9.80;72.40;;;;;;5091812;28;27942;-61
2021/03/27 04:25:24;;;;;;;1.05;0.70;;;9.80;72.30;;;;;;5092142;28;27368;-61
2021/03/27 04:28:12;;;;;;;0.50;0.45;;;9.80;72.30;;;;;;5107363;28;27360;-61
2021/03/27 04:31:07;;;;;;;0.57;0.50;;;9.70;72.10;;;;;;5088744;28;27475;-61
2021/03/27 04:34:06;;;;;;;1.98;0.50;;;9.70;72.10;;;;;;5091386;28;27460;-61
2021/03/27 04:37:04;;;;;;;0.47;0.40;;;9.70;72.10;;;;;;5106794;28;27466;-61
2021/03/27 04:40:07;;;;;;;0.40;0.40;;;9.70;72.10;;;;;;5091867;28;27462;-61
2021/03/27 04:43:00;;;;;;;0.68;0.50;;;9.60;72.10;;;;;;5091440;28;27614;-61
2021/03/27 04:45:50;;;;;;;1.05;0.45;;;9.60;72.10;;;;;;5106860;28;27464;-61
2021/03/27 04:48:41;;;;;;;0.82;0.50;;;9.60;72.10;;;;;;5091496;28;27603;-61
2021/03/27 04:51:39;;;;;;;0.85;0.45;;;9.60;72.00;;;;;;5091705;28;27340;-61
2021/03/27 04:54:35;;;;;;;1.98;0.60;;;9.50;71.90;;;;;;5106249;28;27333;-61
2021/03/27 04:57:30;;;;;;;0.98;0.40;;;9.50;71.70;;;;;;5106020;28;27498;-61
2021/03/27 05:00:44;;;;;;;1.40;0.40;;;9.40;71.70;;;;;;5091334;28;27550;-61
2021/03/27 05:03:34;;;;;;;0.40;0.40;;;9.40;71.80;;;;;;5090676;28;27333;-61
2021/03/27 05:06:54;;;;;;;1.25;0.35;;;9.30;71.80;;;;;;5106640;28;27485;-61
2021/03/27 05:09:42;;;;;;;0.40;0.40;;;9.30;71.80;;;;;;5079600;28;27447;-61
2021/03/27 05:12:36;;;;;;;0.65;0.50;;;9.30;71.80;;;;;;5091412;28;27458;-61
2021/03/27 05:15:46;;;;;;;0.30;0.30;;;9.20;71.80;;;;;;5092505;28;27534;-61
2021/03/27 05:18:51;;;;;;;0.40;0.40;;;9.20;71.70;;;;;;5091195;28;27324;-61
2021/03/27 05:21:36;;;;;;;0.35;0.35;;;9.20;71.60;;;;;;5078725;28;27404;-61
2021/03/27 05:24:26;;;;;;;0.30;0.30;;;9.10;71.50;;;;;;5104082;28;27375;-61
2021/03/27 05:27:20;;;;;;;0.20;0.20;;;9.10;71.40;;;;;;5091063;28;27449;-61
2021/03/27 05:30:21;;;;;;;0.40;0.30;;;9.10;71.50;;;;;;5090865;28;27444;-61
2021/03/27 05:33:22;;;;;;;1.10;0.32;;;9.10;71.20;;;;;;5105677;28;27455;-61
2021/03/27 05:36:30;;;;;;;0.28;0.28;;;9.10;71.10;;;;;;5106061;28;27416;-61
2021/03/27 05:39:41;;;;;;;0.20;0.20;;;9.10;71.20;;;;;;5090566;28;27380;-61
2021/03/27 05:42:44;;;;;;;0.40;0.38;;;9.10;71.10;;;;;;5089937;28;27478;-61
2021/03/27 05:45:54;;;;;;;0.65;0.40;;;9.10;71.10;;;;;;5105581;28;27367;-61
2021/03/27 05:49:16;;;;;;;0.25;0.25;;;9.10;70.80;;;;;;5105854;28;27530;-61
2021/03/27 05:52:25;;;;;;;0.50;0.32;;;9.20;70.90;;;;;;5105439;28;27452;-61
2021/03/27 05:55:19;;;;;;;0.35;0.35;;;9.20;70.70;;;;;;5105528;28;27470;-61
2021/03/27 05:58:27;;;;;;;0.50;0.43;;;9.20;70.50;;;;;;5090530;28;27865;-61
2021/03/27 06:01:17;;;;;;;0.30;0.30;;;9.20;70.70;;;;;;5090177;28;27505;-61
2021/03/27 06:04:10;;;;;;;0.50;0.40;;;9.20;70.20;;;;;;5102261;28;27440;-61
2021/03/27 06:07:22;;;;;;;0.90;0.35;;;9.20;70.20;;;;;;5105619;28;27467;-61
2021/03/27 06:10:59;;;;;;;0.50;0.30;;;9.30;70.10;;;;;;5105579;28;27319;-61
2021/03/27 06:13:58;;;;;;;1.88;0.38;;;9.20;70.10;;;;;;5101766;28;27547;-61
2021/03/27 06:16:56;;;;;;;0.20;0.20;;;9.30;70.10;;;;;;5105555;28;27407;-61
2021/03/27 06:19:46;;;;;;;0.43;0.43;;;9.30;70.00;;;;;;5090385;28;27629;-61
2021/03/27 06:22:58;;;;;;;0.40;0.30;;;9.30;70.00;;;;;;5090220;28;27439;-61
2021/03/27 06:25:46;;;;;;;0.50;0.50;;;9.30;70.00;;;;;;5105311;28;27343;-61
2021/03/27 06:29:21;;;;;;;0.82;0.50;;;9.40;70.00;;;;;;5105307;28;27484;-61
2021/03/27 06:32:37;;;;;;;0.30;0.30;;;9.40;69.50;;;;;;5061720;28;27450;-61
2021/03/27 06:35:24;;;;;;;0.75;0.40;;;9.50;69.60;;;;;;5104906;28;27484;-61
2021/03/27 06:38:46;;;;;;;0.40;0.40;;;9.60;69.50;;;;;;5105061;28;27429;-62
2021/03/27 06:41:37;;;;;;;0.75;0.45;;;9.70;69.80;;;;;;5105167;28;27496;-61
2021/03/27 06:44:40;;;;;;;2.03;0.60;;;9.70;69.20;;;;;;5088576;28;27413;-61
2021/03/27 06:47:41;;;;;;;1.00;0.50;;;9.90;69.00;;;;;;5104309;28;27537;-61
2021/03/27 06:50:52;;;;;;;1.85;0.52;;;10.10;68.30;;;;;;5104877;28;27427;-61
2021/03/27 06:54:11;;;;;;;0.80;0.55;;;10.40;67.60;;;;;;5104565;28;27399;-61
2021/03/27 06:57:04;;;;;;;0.50;0.50;;;10.70;66.60;;;;;;5104903;28;27467;-61
2021/03/27 06:59:59;;;;;;;0.77;0.55;;;11.00;65.70;;;;;;5104769;28;27361;-61
2021/03/27 07:03:11;;;;;;;1.45;0.52;;;11.60;63.90;;;;;;5104723;28;27364;-61
2021/03/27 07:06:03;;;;;;;0.75;0.60;;;12.30;62.30;;;;;;5104833;28;27345;-61
2021/03/27 07:09:34;;;;;;;3.58;0.73;;;12.50;61.10;;;;;;5104675;28;27508;-61
2021/03/27 07:12:43;;;;;;;0.57;0.35;;;12.40;60.70;;;;;;5086291;28;27928;-61
2021/03/27 07:15:55;;;;;;;1.17;0.57;;;12.30;60.50;;;;;;5104593;28;27424;-61
2021/03/27 07:18:55;;;;;;;1.55;0.80;;;12.10;60.90;;;;;;5104670;28;27435;-61
2021/03/27 07:22:05;;;;;;;1.30;0.60;;;12.00;61.30;;;;;;5104252;28;27434;-60
2021/03/27 07:25:25;;;;;;;1.35;0.77;;;12.70;60.50;;;;;;5104495;28;27447;-61
2021/03/27 07:28:44;;;;;;;1.00;0.50;;;13.90;57.90;;;;;;5092185;28;27446;-61
2021/03/27 07:32:02;;;;;;;0.88;0.43;;;15.20;55.10;;;;;;5089718;28;27345;-61
2021/03/27 07:35:10;;;;;;;0.90;0.52;;;16.40;52.70;;;;;;5074968;28;27413;-61
2021/03/27 07:38:14;;;;;;;1.75;0.68;;;17.60;50.20;;;;;;5107677;28;27506;-58
2021/03/27 07:41:01;;;;;;;1.58;0.52;;;18.40;48.50;;;;;;5107064;28;27508;-58
2021/03/27 07:44:18;;;;;;;1.95;0.70;;;19.00;47.10;;;;;;5085603;28;27399;-58
2021/03/27 07:48:00;;;;;;;1.08;0.68;;;19.60;45.90;;;;;;5081371;28;27393;-59
2021/03/27 07:50:59;;;;;;;0.93;0.52;;;20.20;44.40;;;;;;5005307;28;27454;-59
2021/03/27 07:54:22;;;;;;;1.05;0.60;;;20.40;43.40;;;;;;5005195;28;27403;-58
2021/03/27 07:57:12;;;;;;;1.13;0.70;;;20.50;43.20;;;;;;5002063;28;27433;-61
2021/03/27 08:00:12;;;;;;;2.67;0.63;;;20.20;43.70;;;;;;5005528;28;27537;-59
2021/03/27 08:03:06;;;;;;;1.65;0.60;;;20.20;43.40;;;;;;4991373;28;27460;-59
2021/03/27 08:06:15;;;;;;;1.65;0.68;;;20.30;42.80;;;;;;5005443;28;27426;-59
2021/03/27 08:09:12;;;;;;;1.73;0.50;;;20.80;41.90;;;;;;4993267;28;27707;-59
2021/03/27 08:12:33;;;;;;;3.80;0.50;;;21.30;41.30;;;;;;4991161;28;27640;-59
2021/03/27 08:15:36;;;;;;;2.08;0.50;;;21.80;40.40;;;;;;5004608;28;27430;-59
2021/03/27 08:18:39;;;;;;;1.55;0.50;;;22.20;39.70;;;;;;5005256;28;27418;-59
2021/03/27 08:21:36;;;;;;;1.00;0.57;;;21.80;39.50;;;;;;5062370;28;27419;-59
2021/03/27 08:24:39;;;;;;;1.60;0.50;;;21.20;39.90;;;;;;5086904;28;27416;-59
2021/03/27 08:27:30;;;;;;;3.08;0.80;;;20.80;40.40;;;;;;5083536;28;27389;-59
2021/03/27 08:30:32;;;;;;;1.83;0.68;;;20.30;41.20;;;;;;5086845;28;27418;-59
2021/03/27 08:33:17;;;;;;;2.30;0.70;;;20.10;41.20;;;;;;5086543;28;27318;-59
2021/03/27 08:36:23;;;;;;;1.73;0.65;;;19.90;41.70;;;;;;5086585;28;27333;-59
2021/03/27 08:39:37;;;;;;;1.05;0.52;;;20.00;41.50;;;;;;5085344;28;27330;-59
2021/03/27 08:42:56;;;;;;;0.50;0.50;;;20.30;41.30;;;;;;5087607;28;27541;-59
2021/03/27 08:46:17;;;;;;;2.40;0.60;;;21.30;40.00;;;;;;5106975;28;27495;-59
2021/03/27 08:49:08;;;;;;;3.33;0.80;;;22.60;38.20;;;;;;5076864;28;27412;-59
2021/03/27 08:52:29;;;;;;;4.25;0.77;;;23.80;36.60;;;;;;5092088;28;27432;-58
2021/03/27 08:55:34;;;;;;;0.43;0.35;;;24.60;34.90;;;;;;5106182;28;27361;-58
2021/03/27 08:58:47;;;;;;;1.48;0.70;;;25.40;33.80;;;;;;5106566;28;27333;-58
2021/03/27 09:01:57;;;;;;;0.73;0.40;;;26.10;33.00;;;;;;5103124;28;27340;-59
2021/03/27 09:05:10;;;;;;;1.13;0.65;;;26.10;32.90;;;;;;5093028;28;27490;-59
2021/03/27 09:08:06;;;;;;;1.67;0.57;;;25.30;33.30;;;;;;5106676;28;27451;-59
2021/03/27 09:11:11;;;;;;;1.40;0.63;;;24.30;33.20;;;;;;5106690;28;27460;-58
2021/03/27 09:14:14;;;;;;;1.25;0.40;;;23.80;33.40;;;;;;5087854;28;27482;-58
2021/03/27 09:17:06;;;;;;;2.05;1.05;;;24.20;33.80;;;;;;5106169;28;27399;-58
2021/03/27 09:20:34;;;;;;;2.88;1.30;;;24.80;33.50;;;;;;5091098;28;27404;-58
2021/03/27 09:23:40;;;;;;;1.73;1.45;;;25.60;32.90;;;;;;5003968;28;27353;-58
2021/03/27 09:26:36;;;;;;;2.40;1.80;;;26.60;31.90;;;;;;5004320;28;27367;-58
2021/03/27 09:29:28;;;;;;;3.10;1.73;;;27.20;31.30;;;;;;5004184;28;27453;-58
2021/03/27 09:32:36;;;;;;;2.40;1.58;;;27.70;30.40;;;;;;4989791;28;27446;-58
2021/03/27 09:35:23;;;;;;;3.00;1.10;;;28.00;30.50;;;;;;4990757;28;27512;-58
2021/03/27 09:38:11;;;;;;;2.00;0.80;;;28.40;30.00;;;;;;5004060;28;27461;-58
2021/03/27 09:41:19;;;;;;;1.05;0.70;;;28.80;29.60;;;;;;5003615;28;27949;-58
2021/03/27 09:44:42;;;;;;;2.88;0.90;;;29.10;29.40;;;;;;5003090;28;27655;-58
2021/03/27 09:47:56;;;;;;;1.98;1.05;;;29.50;29.10;;;;;;5002922;28;27434;-58
2021/03/27 09:50:58;;;;;;;2.45;0.80;;;29.80;29.30;;;;;;5003538;28;27592;-60
2021/03/27 09:54:40;;;;;;;1.13;0.52;;;30.10;28.80;;;;;;5031877;28;27516;-58
2021/03/27 09:57:27;;;;;;;4.70;2.17;;;30.30;28.30;;;;;;5058821;28;27668;-58
2021/03/27 10:00:35;;;;;;;4.72;2.30;;;30.50;27.80;;;;;;5064667;28;27409;-58
2021/03/27 10:03:41;;;;;;;5.50;2.60;;;30.80;27.60;;;;;;5064381;28;27424;-59
2021/03/27 10:06:41;;;;;;;6.72;2.20;;;31.00;27.40;;;;;;5064715;28;27389;-59
2021/03/27 10:09:47;;;;;;;2.10;1.50;;;31.20;26.90;;;;;;5046568;28;27484;-58
2021/03/27 10:12:38;;;;;;;1.60;1.10;;;31.30;26.80;;;;;;5064711;28;27577;-58
2021/03/27 10:15:59;;;;;;;1.33;0.80;;;31.40;26.10;;;;;;5064877;28;27321;-58
2021/03/27 10:19:03;;;;;;;2.63;0.90;;;31.70;26.00;;;;;;5063777;28;27491;-59
2021/03/27 10:22:06;;;;;;;1.10;0.60;;;32.00;25.90;;;;;;5064410;28;27427;-58
2021/03/27 10:25:00;;;;;;;2.80;0.52;;;32.10;25.90;;;;;;5064179;28;27455;-58
2021/03/27 10:27:52;;;;;;;1.10;0.70;;;32.30;26.10;;;;;;5061759;28;27326;-58
2021/03/27 10:30:49;;;;;;;1.40;0.68;;;32.50;25.80;;;;;;5063800;28;27869;-58
2021/03/27 10:33:38;;;;;;;0.85;0.50;;;32.20;25.70;;;;;;5063430;28;27363;-58
2021/03/27 10:36:56;;;;;;;1.85;0.65;;;32.00;26.10;;;;;;5063798;28;27498;-58
2021/03/27 10:40:19;;;;;;;1.65;0.50;;;31.60;25.10;;;;;;5064309;28;27340;-58
2021/03/27 10:43:48;;;;;;;1.90;0.50;;;31.60;25.20;;;;;;5073512;28;27861;-58
2021/03/27 10:46:40;;;;;;;1.25;0.63;;;31.80;25.20;;;;;;5002999;28;27371;-58
2021/03/27 10:49:46;;;;;;;2.13;0.68;;;31.90;25.30;;;;;;5105057;28;27461;-58
2021/03/27 10:52:40;;;;;;;0.68;0.40;;;31.40;25.40;;;;;;5089547;28;27340;-59
2021/03/27 10:55:56;;;;;;;1.85;0.57;;;31.30;25.80;;;;;;5104386;28;27880;-60
2021/03/27 10:58:57;;;;;;;2.10;0.70;;;31.30;26.30;;;;;;5101313;28;27433;-58
2021/03/27 11:01:51;;;;;;;3.95;0.65;;;31.30;26.50;;;;;;5090547;28;27503;-59
2021/03/27 11:05:10;;;;;;;0.82;0.50;;;30.50;26.40;;;;;;5089761;28;27451;-59
2021/03/27 11:08:43;;;;;;;1.85;0.80;;;29.50;26.30;;;;;;5089270;28;27413;-58
2021/03/27 11:11:42;;;;;;;1.42;0.75;;;28.50;27.20;;;;;;5027354;28;27562;-59
2021/03/27 11:14:54;;;;;;;0.85;0.60;;;27.90;27.80;;;;;;5088913;28;27380;-59
2021/03/27 11:17:58;;;;;;;3.50;0.65;;;28.20;28.50;;;;;;5101273;28;27454;-59
2021/03/27 11:21:04;;;;;;;0.57;0.40;;;28.60;28.60;;;;;;5104598;28;27450;-59
2021/03/27 11:24:26;;;;;;;1.73;0.50;;;28.60;28.20;;;;;;5101259;28;27410;-59
2021/03/27 11:27:38;;;;;;;1.00;0.40;;;28.60;28.20;;;;;;5104604;28;27499;-59
2021/03/27 11:30:44;;;;;;;1.58;0.65;;;28.00;28.10;;;;;;5104540;28;27424;-59
2021/03/27 11:33:47;;;;;;;2.25;0.60;;;27.60;28.20;;;;;;5104268;28;27321;-59
2021/03/27 11:37:11;;;;;;;1.52;0.82;;;27.00;27.60;;;;;;5104380;28;27423;-59
2021/03/27 11:40:04;;;;;;;2.15;0.70;;;26.30;28.00;;;;;;5002450;28;27378;-59
2021/03/27 11:43:13;;;;;;;1.45;0.60;;;25.60;28.70;;;;;;5103420;28;28083;-59
2021/03/27 11:46:28;;;;;;;0.95;0.50;;;25.90;29.40;;;;;;5103761;28;27354;-59
2021/03/27 11:49:39;;;;;;;1.55;0.70;;;26.20;30.20;;;;;;5100882;28;27333;-59
2021/03/27 11:52:28;;;;;;;1.67;0.63;;;26.90;29.60;;;;;;5088551;28;27486;-59
2021/03/27 11:55:34;;;;;;;1.52;0.75;;;27.50;27.50;;;;;;5103607;28;27344;-60
2021/03/27 12:02:32;;;;;;;0.30;0.30;;;26.80;27.80;;;;;;5103788;28;27472;-60
2021/03/27 12:05:27;;;;;;;2.38;0.65;;;26.50;28.90;;;;;;5104107;28;27327;-59
2021/03/27 12:08:17;;;;;;;1.85;0.60;;;26.50;29.20;;;;;;5088847;28;27344;-59
2021/03/27 12:11:15;;;;;;;1.52;0.60;;;26.90;29.00;;;;;;5088725;28;27451;-59
2021/03/27 12:14:03;;;;;;;2.40;0.70;;;27.30;28.40;;;;;;5091664;28;27443;-59
2021/03/27 12:16:59;;;;;;;1.90;0.60;;;27.80;28.30;;;;;;5078436;28;27337;-60
2021/03/27 12:19:50;;;;;;;0.98;0.50;;;28.30;26.80;;;;;;5104394;28;27360;-60
2021/03/27 12:22:41;;;;;;;2.13;0.60;;;28.70;26.70;;;;;;5107279;28;27495;-60
2021/03/27 12:25:46;;;;;;;2.60;0.80;;;28.60;27.10;;;;;;5106931;28;27440;-60
2021/03/27 12:28:49;;;;;;;1.98;0.60;;;28.60;27.10;;;;;;5107297;28;27479;-60
2021/03/27 12:32:11;;;;;;;1.45;0.85;;;28.20;26.60;;;;;;5106942;28;27419;-60
2021/03/27 12:35:06;;;;;;;2.28;0.98;;;27.70;26.70;;;;;;5103587;28;27376;-60
2021/03/27 12:38:00;;;;;;;2.45;0.77;;;27.10;26.60;;;;;;5107091;28;27407;-60
2021/03/27 12:40:57;;;;;;;2.65;0.70;;;26.80;27.30;;;;;;5091587;28;27466;-60
2021/03/27 12:43:45;;;;;;;2.88;0.85;;;26.40;27.40;;;;;;5106070;28;27386;-60
2021/03/27 12:46:34;;;;;;;1.92;0.70;;;25.90;27.00;;;;;;5105930;28;27686;-60
2021/03/27 12:49:28;;;;;;;5.25;0.80;;;25.40;27.60;;;;;;5074129;28;27459;-59
2021/03/27 12:52:41;;;;;;;1.65;0.65;;;25.00;28.00;;;;;;5106770;28;27450;-59
2021/03/27 12:55:36;;;;;;;1.23;0.55;;;24.60;27.90;;;;;;5106329;28;27474;-59
2021/03/27 12:58:54;;;;;;;1.85;0.82;;;24.50;28.30;;;;;;5106379;28;27902;-59
2021/03/27 13:01:55;;;;;;;2.92;0.88;;;24.40;28.50;;;;;;5106536;28;27462;-61
2021/03/27 13:05:15;;;;;;;1.88;0.70;;;24.20;28.90;;;;;;5106681;28;27372;-60
2021/03/27 13:08:08;;;;;;;2.90;0.98;;;24.00;29.40;;;;;;5106126;28;27478;-59
2021/03/27 13:10:58;;;;;;;1.13;0.80;;;23.70;30.00;;;;;;5106462;28;27470;-59
2021/03/27 13:14:20;;;;;;;3.45;0.93;;;23.40;30.50;;;;;;5105681;28;27365;-59
2021/03/27 13:17:11;;;;;;;1.92;0.80;;;23.00;30.90;;;;;;5088012;28;27453;-59
2021/03/27 13:20:17;;;;;;;3.00;1.15;;;22.90;31.40;;;;;;5106071;28;27478;-59
2021/03/27 13:23:11;;;;;;;0.80;0.50;;;22.90;31.60;;;;;;5092163;28;27484;-59
2021/03/27 13:26:00;;;;;;;2.58;0.77;;;22.90;31.50;;;;;;5105515;27;27513;-59
2021/03/27 13:28:55;;;;;;;4.05;1.40;;;22.90;32.50;;;;;;5077065;28;27479;-59
2021/03/27 13:31:46;;;;;;;3.53;1.50;;;22.70;32.00;;;;;;5091054;28;27408;-59
2021/03/27 13:34:33;;;;;;;3.10;1.45;;;22.60;32.40;;;;;;5090789;28;27474;-59
2021/03/27 13:37:45;;;;;;;3.78;1.42;;;22.60;32.00;;;;;;5076609;28;27483;-59
2021/03/27 13:40:31;;;;;;;4.78;1.15;;;23.00;32.20;;;;;;5090144;28;27370;-59
2021/03/27 13:43:35;;;;;;;3.28;1.35;;;23.60;32.30;;;;;;5105213;28;27316;-59
2021/03/27 13:46:27;;;;;;;2.60;1.15;;;24.10;32.50;;;;;;5090801;28;27391;-59
2021/03/27 13:49:19;;;;;;;3.33;1.13;;;24.60;31.90;;;;;;5102215;28;27332;-61
2021/03/27 13:52:29;;;;;;;2.08;1.00;;;25.00;30.80;;;;;;5076791;28;27417;-60
2021/03/27 13:55:17;;;;;;;2.65;0.98;;;25.40;31.20;;;;;;5091099;28;27346;-59
2021/03/27 13:58:15;;;;;;;5.25;1.00;;;25.70;30.90;;;;;;5105399;27;27958;-60
2021/03/27 14:01:09;;;;;;;2.13;1.10;;;25.80;31.40;;;;;;5091666;28;27403;-61
2021/03/27 14:04:12;;;;;;;3.92;0.90;;;25.40;26.90;;;;;;5091905;28;27496;-60
2021/03/27 14:07:32;;;;;;;4.40;0.93;;;24.30;26.00;;;;;;5105643;28;27420;-61
2021/03/27 14:10:45;;;;;;;2.58;0.90;;;23.30;26.60;;;;;;5105621;28;27415;-60
2021/03/27 14:14:06;;;;;;;2.08;1.08;;;22.80;28.20;;;;;;5090344;28;27522;-59
2021/03/27 14:16:54;;;;;;;5.15;1.30;;;22.80;28.20;;;;;;5080897;28;27511;-61
2021/03/27 14:20:09;;;;;;;6.20;1.08;;;22.50;27.40;;;;;;5105510;28;27406;-61
2021/03/27 14:23:31;;;;;;;4.53;1.40;;;22.20;28.70;;;;;;5093119;28;27490;-62
2021/03/27 14:26:25;;;;;;;4.78;1.35;;;22.20;29.90;;;;;;5105339;28;27556;-61
2021/03/27 14:29:11;;;;;;;2.30;1.10;;;22.00;30.20;;;;;;5105380;28;27387;-61
2021/03/27 14:32:17;;;;;;;8.60;1.55;;;21.80;30.30;;;;;;5090279;28;27492;-61
2021/03/27 14:35:23;;;;;;;4.95;1.30;;;21.50;30.50;;;;;;5089531;28;27714;-61
2021/03/27 14:38:33;;;;;;;2.63;1.17;;;21.20;31.40;;;;;;5104521;28;27470;-61
2021/03/27 14:41:25;;;;;;;4.35;1.20;;;21.00;31.70;;;;;;5066141;28;27595;-61
2021/03/27 14:44:40;;;;;;;6.25;1.35;;;20.70;32.10;;;;;;5104264;28;27483;-61
2021/03/27 14:47:51;;;;;;;3.55;1.40;;;20.50;32.60;;;;;;5101774;28;27464;-61
2021/03/27 14:50:51;;;;;;;2.45;1.30;;;20.40;33.20;;;;;;5105031;28;27451;-62
2021/03/27 14:53:51;;;;;;;2.83;1.60;;;20.20;33.50;;;;;;5105365;28;27312;-60
2021/03/27 14:56:40;;;;;;;4.97;2.08;;;20.00;33.40;;;;;;5089701;28;27446;-60
2021/03/27 14:59:29;;;;;;;3.00;1.52;;;19.80;33.60;;;;;;5089740;28;27874;-60
2021/03/27 15:02:20;;;;;;;6.70;2.92;;;19.60;34.30;;;;;;5075680;28;27376;-60
2021/03/27 15:05:13;;;;;;;4.47;2.20;;;19.40;34.10;;;;;;5104901;28;27461;-60
2021/03/27 15:08:40;;;;;;;6.20;2.85;;;19.40;34.70;;;;;;5090222;28;27469;-60
2021/03/27 15:11:34;;;;;;;4.20;2.08;;;19.40;35.10;;;;;;5089724;28;27484;-60
2021/03/27 15:14:28;;;;;;;3.97;2.05;;;19.20;35.20;;;;;;5089216;28;27545;-60
2021/03/27 15:17:28;;;;;;;4.55;1.88;;;19.10;35.50;;;;;;5076169;28;27450;-61
2021/03/27 15:20:24;;;;;;;4.20;1.70;;;18.90;36.00;;;;;;5104757;28;27387;-61
2021/03/27 15:23:37;;;;;;;7.53;1.73;;;18.70;35.10;;;;;;5090294;28;27332;-60
2021/03/27 15:27:17;;;;;;;4.30;1.50;;;18.50;35.10;;;;;;5104342;28;27406;-60
2021/03/27 15:30:20;;;;;;;3.83;1.20;;;18.30;35.00;;;;;;5104042;28;27417;-60
2021/03/27 15:33:16;;;;;;;5.95;1.20;;;18.20;35.10;;;;;;5104591;28;27327;-60
2021/03/27 15:36:31;;;;;;;3.17;1.15;;;18.00;35.00;;;;;;5104467;28;27940;-61
2021/03/27 15:39:36;;;;;;;3.83;1.25;;;17.90;35.00;;;;;;5104160;28;27446;-61
2021/03/27 15:42:39;;;;;;;2.47;0.93;;;17.80;35.10;;;;;;5089306;28;27400;-60
2021/03/27 15:45:34;;;;;;;4.28;1.45;;;17.60;35.00;;;;;;5104505;28;27374;-61
2021/03/27 15:48:31;;;;;;;2.95;1.00;;;17.40;35.60;;;;;;5090723;28;27935;-61
2021/03/27 15:51:27;;;;;;;1.77;0.88;;;17.30;35.90;;;;;;5107876;28;27519;-60
2021/03/27 15:54:31;;;;;;;5.20;2.22;;;17.20;36.30;;;;;;5107489;28;27431;-61